createdAt,value
2023-01-24T00:01:42.668Z,21.48
2023-01-24T00:04:09.394Z,19.45
2023-01-24T00:06:36.206Z,19.05
2023-01-24T00:09:02.965Z,19.13
2023-01-24T00:11:29.691Z,21.77
2023-01-24T00:13:56.356Z,20.55
2023-01-24T00:16:23.370Z,19.17
2023-01-24T00:18:50.664Z,19.63
2023-01-24T00:21:20.997Z,19.90
2023-01-24T00:26:17.563Z,17.38
2023-01-24T00:28:45.110Z,19.08
2023-01-24T00:31:12.277Z,17.10
2023-01-24T00:33:39.103Z,19.33
2023-01-24T00:36:06.519Z,19.88
2023-01-24T00:38:33.799Z,21.58
2023-01-24T00:41:01.019Z,21.00
2023-01-24T00:43:28.059Z,20.20
2023-01-24T00:45:55.460Z,21.17
2023-01-24T00:48:22.962Z,19.23
2023-01-24T00:50:49.994Z,22.30
2023-01-24T00:53:17.204Z,21.35
2023-01-24T00:55:45.798Z,21.00
2023-01-24T00:58:13.231Z,20.35
2023-01-24T01:00:40.727Z,22.13
2023-01-24T01:03:10.822Z,20.17
2023-01-24T01:05:37.576Z,19.52
2023-01-24T01:08:04.588Z,21.05
2023-01-24T01:10:31.626Z,21.73
2023-01-24T01:12:58.482Z,20.48
2023-01-24T01:15:25.277Z,23.05
2023-01-24T01:17:51.958Z,22.98
2023-01-24T01:20:18.830Z,21.58
2023-01-24T01:22:45.627Z,22.25
2023-01-24T01:25:12.489Z,20.20
2023-01-24T01:27:39.205Z,23.40
2023-01-24T01:30:06.638Z,21.80
2023-01-24T01:32:33.570Z,21.58
2023-01-24T01:35:00.293Z,19.52
2023-01-24T01:37:27.055Z,19.60
2023-01-24T01:39:53.754Z,22.25
2023-01-24T01:42:20.416Z,20.52
2023-01-24T01:44:49.197Z,21.88
2023-01-24T01:47:21.810Z,23.42
2023-01-24T01:50:00.635Z,22.15
2023-01-24T01:52:30.526Z,23.23
2023-01-24T01:55:03.113Z,25.38
2023-01-24T01:57:32.784Z,22.45
2023-01-24T02:00:10.645Z,24.48
2023-01-24T02:02:39.502Z,23.00
2023-01-24T02:05:09.011Z,22.98
2023-01-24T02:07:51.055Z,20.13
2023-01-24T02:10:20.507Z,24.38
2023-01-24T02:12:49.068Z,23.47
2023-01-24T02:15:38.841Z,22.15
2023-01-24T02:18:07.635Z,21.15
2023-01-24T02:20:39.564Z,20.50
2023-01-24T02:23:39.378Z,23.73
2023-01-24T02:26:22.638Z,20.33
2023-01-24T02:29:12.030Z,22.65
2023-01-24T02:31:57.556Z,20.48
2023-01-24T02:34:25.704Z,22.27
2023-01-24T02:36:55.995Z,18.85
2023-01-24T02:39:32.091Z,24.13
2023-01-24T02:42:05.315Z,21.83
2023-01-24T02:45:00.189Z,21.98
2023-01-24T02:47:33.495Z,20.23
2023-01-24T02:50:01.192Z,21.17
2023-01-24T02:52:46.876Z,19.58
2023-01-24T02:55:13.793Z,20.30
2023-01-24T02:57:59.378Z,19.80
2023-01-24T03:00:26.166Z,19.30
2023-01-24T03:02:53.149Z,22.52
2023-01-24T03:05:20.371Z,19.88
2023-01-24T03:07:47.276Z,20.08
2023-01-24T03:10:18.996Z,19.98
2023-01-24T03:13:04.426Z,19.48
2023-01-24T03:15:49.911Z,19.80
2023-01-24T03:18:35.317Z,18.38
2023-01-24T03:21:20.677Z,19.70
2023-01-24T03:24:06.039Z,18.77
2023-01-24T03:26:51.565Z,21.00
2023-01-24T03:29:36.970Z,21.05
2023-01-24T03:32:22.572Z,21.75
2023-01-24T03:34:52.227Z,20.20
2023-01-24T03:37:39.855Z,20.05
2023-01-24T03:40:10.325Z,21.27
2023-01-24T03:45:21.058Z,18.92
2023-01-24T03:47:55.848Z,20.58
2023-01-24T03:50:55.922Z,18.67
2023-01-24T03:53:24.877Z,18.00
2023-01-24T03:55:59.326Z,19.20
2023-01-24T03:58:27.933Z,20.10
2023-01-24T04:00:55.037Z,19.20
2023-01-24T04:03:21.761Z,19.92
2023-01-24T04:05:49.103Z,18.85
2023-01-24T04:08:16.631Z,20.73
2023-01-24T04:10:43.392Z,18.58
2023-01-24T04:13:11.029Z,18.38
2023-01-24T04:15:38.654Z,18.63
2023-01-24T04:18:06.637Z,18.70
2023-01-24T04:20:36.628Z,18.17
2023-01-24T04:23:08.259Z,17.88
2023-01-24T04:25:35.340Z,19.75
2023-01-24T04:28:02.937Z,19.67
2023-01-24T04:30:29.856Z,23.67
2023-01-24T04:32:56.596Z,20.33
2023-01-24T04:35:26.108Z,19.08
2023-01-24T04:37:53.401Z,19.70
2023-01-24T04:40:20.087Z,20.80
2023-01-24T04:42:46.743Z,21.42
2023-01-24T04:45:13.534Z,19.48
2023-01-24T04:47:40.513Z,21.48
2023-01-24T04:50:08.160Z,24.48
2023-01-24T04:52:34.874Z,23.25
2023-01-24T04:55:01.731Z,23.80
2023-01-24T04:57:28.405Z,21.98
2023-01-24T04:59:55.191Z,20.30
2023-01-24T05:02:21.931Z,23.00
2023-01-24T05:04:48.667Z,21.38
2023-01-24T05:07:15.432Z,23.63
2023-01-24T05:09:42.154Z,24.73
2023-01-24T05:12:08.907Z,23.95
2023-01-24T05:14:35.667Z,21.58
2023-01-24T05:17:02.536Z,24.63
2023-01-24T05:19:30.991Z,21.63
2023-01-24T05:21:58.042Z,22.13
2023-01-24T05:24:24.743Z,23.35
2023-01-24T05:26:51.497Z,23.17
2023-01-24T05:29:18.253Z,25.50
2023-01-24T05:31:45.149Z,24.35
2023-01-24T05:34:11.906Z,22.40
2023-01-24T05:36:38.594Z,24.48
2023-01-24T05:39:05.278Z,25.55
2023-01-24T05:41:31.971Z,25.92
2023-01-24T05:43:58.672Z,25.25
2023-01-24T05:46:25.483Z,24.60
2023-01-24T05:48:52.289Z,24.80
2023-01-24T05:51:22.511Z,26.27
2023-01-24T05:53:49.551Z,24.30
2023-01-24T05:56:19.400Z,23.77
2023-01-24T05:58:47.136Z,22.60
2023-01-24T06:01:19.502Z,24.35
2023-01-24T06:03:49.025Z,26.35
2023-01-24T06:06:17.601Z,24.37
2023-01-24T06:08:44.900Z,25.05
2023-01-24T06:11:27.198Z,26.73
2023-01-24T06:13:55.928Z,27.63
2023-01-24T06:16:25.091Z,27.27
2023-01-24T06:18:53.432Z,27.23
2023-01-24T06:21:47.538Z,26.25
2023-01-24T06:24:23.027Z,29.88
2023-01-24T06:26:50.543Z,27.13
2023-01-24T06:29:18.740Z,25.30
2023-01-24T06:31:45.418Z,25.15
2023-01-24T06:34:25.723Z,25.98
2023-01-24T06:37:01.262Z,27.73
2023-01-24T06:39:28.296Z,28.65
2023-01-24T06:41:55.305Z,27.00
2023-01-24T06:44:22.409Z,29.45
2023-01-24T06:46:49.210Z,25.20
2023-01-24T06:49:16.187Z,27.60
2023-01-24T06:51:42.915Z,26.45
2023-01-24T06:54:09.599Z,28.52
2023-01-24T06:56:36.339Z,28.63
2023-01-24T06:59:03.429Z,27.42
2023-01-24T07:01:30.187Z,26.48
2023-01-24T07:03:56.856Z,28.20
2023-01-24T07:06:24.259Z,27.33
2023-01-24T07:08:51.087Z,31.50
2023-01-24T07:11:17.934Z,27.23
2023-01-24T07:13:44.738Z,27.50
2023-01-24T07:16:11.709Z,25.85
2023-01-24T07:18:38.806Z,24.80
2023-01-24T07:21:07.308Z,26.95
2023-01-24T07:23:35.491Z,26.23
2023-01-24T07:26:04.303Z,27.02
2023-01-24T07:28:31.268Z,28.77
2023-01-24T07:30:58.018Z,30.70
2023-01-24T07:33:24.749Z,28.95
2023-01-24T07:35:51.539Z,27.35
2023-01-24T07:38:18.237Z,27.20
2023-01-24T07:40:44.997Z,28.95
2023-01-24T07:43:11.878Z,29.08
2023-01-24T07:45:39.521Z,27.60
2023-01-24T07:48:09.408Z,30.58
2023-01-24T07:50:36.697Z,29.00
2023-01-24T07:53:03.866Z,28.92
2023-01-24T07:55:30.615Z,29.88
2023-01-24T07:58:02.175Z,26.67
2023-01-24T08:00:30.184Z,30.00
2023-01-24T08:02:56.905Z,31.25
2023-01-24T08:05:23.811Z,27.95
2023-01-24T08:07:50.741Z,32.90
2023-01-24T08:10:17.626Z,30.65
2023-01-24T08:12:44.411Z,31.25
2023-01-24T08:15:11.594Z,30.33
2023-01-24T08:17:39.229Z,28.75
2023-01-24T08:20:07.284Z,27.83
2023-01-24T08:22:34.065Z,30.20
2023-01-24T08:25:00.880Z,25.95
2023-01-24T08:27:27.663Z,29.42
2023-01-24T08:29:54.344Z,28.02
2023-01-24T08:32:21.288Z,27.13
2023-01-24T08:34:48.186Z,28.45
2023-01-24T08:37:15.154Z,31.55
2023-01-24T08:39:41.935Z,27.55
2023-01-24T08:42:09.820Z,27.85
2023-01-24T08:44:36.548Z,28.00
2023-01-24T08:47:03.332Z,31.35
2023-01-24T08:49:30.058Z,26.77
2023-01-24T08:51:59.983Z,30.10
2023-01-24T08:54:28.947Z,28.17
2023-01-24T08:56:56.175Z,24.85
2023-01-24T08:59:23.543Z,27.23
2023-01-24T09:01:50.304Z,25.85
2023-01-24T09:04:17.049Z,27.88
2023-01-24T09:06:43.878Z,26.55
2023-01-24T09:09:10.691Z,25.00
2023-01-24T09:11:37.590Z,27.25
2023-01-24T09:14:04.369Z,25.83
2023-01-24T09:16:31.091Z,26.00
2023-01-24T09:18:57.892Z,26.75
2023-01-24T09:21:24.717Z,24.70
2023-01-24T09:23:53.845Z,24.85
2023-01-24T09:26:20.818Z,24.42
2023-01-24T09:28:47.566Z,28.27
2023-01-24T09:31:14.380Z,26.90
2023-01-24T09:33:53.955Z,25.15
2023-01-24T09:36:25.120Z,25.45
2023-01-24T09:39:04.380Z,24.38
2023-01-24T09:41:57.768Z,27.52
2023-01-24T09:44:47.890Z,24.65
2023-01-24T09:47:43.374Z,26.23
2023-01-24T09:50:18.033Z,26.77
2023-01-24T09:52:47.619Z,26.75
2023-01-24T09:55:25.087Z,29.77
2023-01-24T09:58:00.492Z,27.73
2023-01-24T10:00:33.530Z,28.23
2023-01-24T10:03:01.664Z,30.65
2023-01-24T10:05:59.891Z,27.98
2023-01-24T10:08:45.868Z,24.65
2023-01-24T10:11:24.524Z,27.95
2023-01-24T10:13:54.435Z,26.00
2023-01-24T10:16:58.450Z,27.45
2023-01-24T10:19:46.171Z,26.70
2023-01-24T10:22:31.899Z,26.40
2023-01-24T10:25:17.766Z,26.95
2023-01-24T10:27:48.029Z,27.02
2023-01-24T10:30:28.598Z,27.90
2023-01-24T10:33:02.301Z,26.63
2023-01-24T10:35:54.920Z,28.27
2023-01-24T10:38:21.818Z,25.60
2023-01-24T10:41:10.581Z,23.15
2023-01-24T10:43:39.573Z,26.27
2023-01-24T10:46:56.984Z,29.52
2023-01-24T10:50:00.196Z,26.08
2023-01-24T10:52:27.605Z,23.23
2023-01-24T10:54:58.543Z,26.95
2023-01-24T10:57:43.055Z,26.20
2023-01-24T11:00:15.633Z,27.17
2023-01-24T11:02:46.009Z,24.05
2023-01-24T11:07:52.963Z,26.95
2023-01-24T11:10:36.255Z,27.75
2023-01-24T11:13:06.404Z,25.15
2023-01-24T11:15:34.957Z,23.85
2023-01-24T11:18:19.887Z,25.10
2023-01-24T11:20:47.529Z,24.38
2023-01-24T11:23:19.800Z,23.80
2023-01-24T11:25:52.692Z,24.63
2023-01-24T11:28:30.884Z,25.77
2023-01-24T11:31:02.471Z,28.38
2023-01-24T11:34:02.371Z,25.73
2023-01-24T11:36:35.180Z,24.52
2023-01-24T11:39:29.142Z,24.02
2023-01-24T11:42:14.882Z,24.45
2023-01-24T11:45:11.390Z,24.35
2023-01-24T11:47:47.787Z,21.95
2023-01-24T11:50:38.615Z,23.52
2023-01-24T11:53:14.020Z,21.20
2023-01-24T11:56:05.102Z,24.08
2023-01-24T11:58:55.886Z,20.83
2023-01-24T12:02:13.916Z,26.90
2023-01-24T12:04:57.158Z,22.33
2023-01-24T12:07:37.163Z,23.55
2023-01-24T12:10:28.193Z,22.08
2023-01-24T12:13:15.620Z,23.88
2023-01-24T12:15:58.951Z,21.77
2023-01-24T12:18:47.631Z,24.23
2023-01-24T12:21:14.448Z,22.55
2023-01-24T12:24:20.312Z,23.40
2023-01-24T12:26:54.481Z,22.77
2023-01-24T12:29:51.081Z,23.38
2023-01-24T12:32:35.854Z,23.35
2023-01-24T12:35:21.369Z,23.08
2023-01-24T12:38:15.792Z,21.23
2023-01-24T12:41:05.536Z,22.33
2023-01-24T12:43:47.074Z,23.45
2023-01-24T12:46:40.616Z,21.33
2023-01-24T12:49:32.696Z,22.70
2023-01-24T12:52:15.633Z,23.25
2023-01-24T12:54:50.669Z,21.75
2023-01-24T12:57:27.818Z,21.83
2023-01-24T12:59:54.529Z,23.25
2023-01-24T13:02:30.079Z,24.25
2023-01-24T13:05:05.635Z,21.65
2023-01-24T13:07:56.340Z,22.70
2023-01-24T13:10:40.378Z,24.60
2023-01-24T13:13:21.229Z,25.50
2023-01-24T13:16:03.360Z,26.45
2023-01-24T13:18:43.207Z,24.00
2023-01-24T13:21:23.204Z,22.15
2023-01-24T13:24:02.236Z,25.58
2023-01-24T13:26:46.061Z,21.15
2023-01-24T13:29:33.554Z,24.10
2023-01-24T13:32:18.666Z,25.77
2023-01-24T13:34:57.257Z,24.70
2023-01-24T13:37:29.822Z,24.63
2023-01-24T13:40:06.988Z,24.85
2023-01-24T13:42:36.833Z,23.48
2023-01-24T13:45:26.560Z,23.75
2023-01-24T13:47:58.611Z,21.83
2023-01-24T13:50:29.904Z,22.48
2023-01-24T13:52:58.080Z,22.50
2023-01-24T13:55:24.788Z,20.77
2023-01-24T13:58:14.246Z,27.23
2023-01-24T14:00:51.207Z,20.50
2023-01-24T14:03:28.454Z,21.75
2023-01-24T14:06:04.539Z,24.08
2023-01-24T14:08:31.185Z,21.70
2023-01-24T14:10:57.839Z,23.00
2023-01-24T14:13:44.083Z,23.70
2023-01-24T14:16:14.758Z,23.55
2023-01-24T14:18:50.438Z,24.27
2023-01-24T14:21:26.060Z,23.05
2023-01-24T14:23:58.540Z,22.30
2023-01-24T14:26:31.265Z,25.40
2023-01-24T14:29:03.089Z,26.10
2023-01-24T14:31:40.861Z,25.35
2023-01-24T14:34:40.268Z,26.38
2023-01-24T14:37:11.606Z,22.02
2023-01-24T14:39:39.080Z,24.65
2023-01-24T14:42:14.775Z,23.30
2023-01-24T14:44:55.428Z,23.38
2023-01-24T14:47:29.452Z,21.05
2023-01-24T14:49:58.561Z,26.67
2023-01-24T14:52:28.004Z,25.88
2023-01-24T14:55:22.373Z,23.70
2023-01-24T14:57:49.046Z,23.50
2023-01-24T15:00:18.326Z,21.38
2023-01-24T15:02:55.309Z,22.75
2023-01-24T15:05:28.468Z,23.45
2023-01-24T15:07:55.708Z,25.45
2023-01-24T15:10:34.137Z,22.92
2023-01-24T15:13:03.515Z,22.70
2023-01-24T15:15:30.830Z,22.90
2023-01-24T15:18:03.618Z,26.35
2023-01-24T15:20:31.242Z,24.08
2023-01-24T15:23:00.520Z,26.17
2023-01-24T15:25:35.024Z,23.23
2023-01-24T15:28:27.309Z,25.15
2023-01-24T15:31:02.115Z,22.90
2023-01-24T15:33:45.011Z,23.27
2023-01-24T15:36:32.799Z,22.42
2023-01-24T15:39:02.237Z,26.02
2023-01-24T15:41:54.333Z,25.90
2023-01-24T15:44:21.435Z,23.52
2023-01-24T15:47:14.706Z,24.95
2023-01-24T15:50:01.369Z,24.35
2023-01-24T15:52:28.398Z,23.40
2023-01-24T15:55:01.477Z,22.50
2023-01-24T15:57:31.804Z,22.27
2023-01-24T16:00:13.161Z,25.60
2023-01-24T16:02:40.339Z,23.98
2023-01-24T16:05:19.891Z,22.13
2023-01-24T16:07:46.824Z,21.40
2023-01-24T16:10:14.838Z,20.73
2023-01-24T16:12:42.686Z,20.40
2023-01-24T16:15:20.837Z,22.73
2023-01-24T16:17:47.697Z,21.40
2023-01-24T16:20:21.861Z,21.30
2023-01-24T16:22:49.243Z,20.88
2023-01-24T16:25:17.399Z,22.75
2023-01-24T16:27:44.697Z,20.80
2023-01-24T16:30:15.869Z,20.33
2023-01-24T16:32:42.864Z,21.15
2023-01-24T16:35:09.894Z,22.50
2023-01-24T16:37:36.744Z,20.67
2023-01-24T16:40:04.107Z,20.58
2023-01-24T16:42:31.223Z,19.27
2023-01-24T16:45:01.455Z,21.58
2023-01-24T16:47:29.170Z,19.95
2023-01-24T16:49:57.292Z,20.17
2023-01-24T16:52:26.780Z,20.58
2023-01-24T16:54:53.810Z,20.57
2023-01-24T16:57:20.869Z,21.55
2023-01-24T16:59:48.361Z,20.60
2023-01-24T17:02:15.663Z,19.15
2023-01-24T17:04:42.458Z,22.42
2023-01-24T17:07:09.244Z,19.60
2023-01-24T17:09:36.096Z,19.83
2023-01-24T17:12:13.619Z,21.88
2023-01-24T17:14:41.998Z,21.88
2023-01-24T17:17:09.158Z,24.17
2023-01-24T17:19:37.889Z,21.45
2023-01-24T17:22:06.256Z,22.10
2023-01-24T17:24:33.327Z,24.60
2023-01-24T17:27:00.272Z,21.50
2023-01-24T17:29:28.488Z,20.40
2023-01-24T17:31:56.890Z,21.55
2023-01-24T17:34:24.122Z,22.38
2023-01-24T17:36:51.298Z,20.98
2023-01-24T17:39:18.069Z,20.90
2023-01-24T17:41:44.891Z,21.67
2023-01-24T17:44:13.166Z,20.77
2023-01-24T17:46:40.116Z,21.40
2023-01-24T17:49:06.975Z,22.65
2023-01-24T17:51:36.984Z,21.80
2023-01-24T17:54:06.856Z,23.02
2023-01-24T17:56:33.742Z,20.92
2023-01-24T17:59:00.560Z,21.40
2023-01-24T18:01:27.296Z,23.00
2023-01-24T18:03:54.070Z,18.88
2023-01-24T18:06:20.957Z,22.45
2023-01-24T18:08:47.944Z,21.35
2023-01-24T18:11:17.141Z,22.25
2023-01-24T18:13:44.263Z,23.88
2023-01-24T18:16:14.347Z,22.00
2023-01-24T18:18:42.033Z,19.50
2023-01-24T18:21:18.087Z,23.33
2023-01-24T18:23:57.091Z,21.15
2023-01-24T18:26:25.115Z,23.42
2023-01-24T18:28:51.921Z,23.55
2023-01-24T18:31:19.059Z,22.40
2023-01-24T18:33:45.825Z,20.05
2023-01-24T18:36:15.154Z,22.27
2023-01-24T18:38:42.008Z,23.83
2023-01-24T18:41:08.813Z,19.85
2023-01-24T18:43:37.301Z,21.58
2023-01-24T18:46:09.638Z,21.40
2023-01-24T18:48:38.329Z,20.90
2023-01-24T18:51:14.320Z,21.50
2023-01-24T18:53:41.808Z,24.08
2023-01-24T18:56:08.829Z,25.63
2023-01-24T18:58:37.034Z,24.40
2023-01-24T19:03:44.628Z,23.52
2023-01-24T19:06:12.410Z,26.83
2023-01-24T19:08:56.527Z,26.17
2023-01-24T19:11:28.374Z,23.83
2023-01-24T19:13:55.556Z,24.05
2023-01-24T19:16:23.466Z,22.35
2023-01-24T19:18:51.603Z,23.77
2023-01-24T19:21:19.870Z,22.23
2023-01-24T19:23:48.093Z,23.10
2023-01-24T19:26:17.007Z,22.48
2023-01-24T19:28:44.320Z,25.30
2023-01-24T19:31:11.507Z,22.77
2023-01-24T19:33:38.310Z,24.17
2023-01-24T19:36:07.271Z,26.52
2023-01-24T19:38:34.721Z,24.38
2023-01-24T19:41:06.475Z,25.77
2023-01-24T19:43:37.244Z,22.27
2023-01-24T19:46:12.381Z,24.15
2023-01-24T19:48:40.246Z,23.23
2023-01-24T19:51:09.965Z,22.08
2023-01-24T19:53:37.755Z,24.05
2023-01-24T19:56:07.131Z,23.30
2023-01-24T19:58:34.940Z,23.05
2023-01-24T20:01:06.615Z,22.63
2023-01-24T20:03:34.800Z,24.27
2023-01-24T20:06:09.331Z,24.23
2023-01-24T20:08:36.218Z,23.20
2023-01-24T20:11:09.676Z,24.40
2023-01-24T20:13:36.473Z,24.85
2023-01-24T20:16:05.812Z,27.33
2023-01-24T20:18:32.922Z,24.95
2023-01-24T20:20:59.657Z,25.70
2023-01-24T20:23:26.518Z,24.33
2023-01-24T20:25:53.262Z,26.67
2023-01-24T20:28:20.018Z,24.30
2023-01-24T20:30:46.756Z,29.42
2023-01-24T20:33:14.402Z,24.85
2023-01-24T20:35:41.235Z,26.30
2023-01-24T20:38:08.723Z,25.50
2023-01-24T20:40:35.476Z,25.75
2023-01-24T20:43:02.146Z,23.60
2023-01-24T20:45:29.139Z,24.15
2023-01-24T20:47:55.905Z,25.00
2023-01-24T20:50:22.634Z,25.77
2023-01-24T20:52:49.313Z,25.35
2023-01-24T20:55:16.106Z,26.35
2023-01-24T20:57:42.775Z,28.08
2023-01-24T21:00:10.179Z,26.35
2023-01-24T21:02:36.919Z,27.02
2023-01-24T21:05:03.784Z,28.60
2023-01-24T21:07:30.541Z,29.55
2023-01-24T21:09:57.202Z,28.95
2023-01-24T21:12:23.921Z,27.13
2023-01-24T21:14:50.592Z,24.67
2023-01-24T21:17:17.603Z,26.75
2023-01-24T21:19:44.433Z,28.00
2023-01-24T21:22:11.200Z,27.02
2023-01-24T21:24:38.433Z,25.58
2023-01-24T21:27:05.593Z,26.95
2023-01-24T21:29:32.590Z,23.58
2023-01-24T21:31:59.610Z,24.23
2023-01-24T21:34:26.769Z,24.60
2023-01-24T21:36:53.523Z,24.52
2023-01-24T21:39:20.391Z,24.55
2023-01-24T21:41:56.386Z,24.45
2023-01-24T21:44:25.416Z,26.83
2023-01-24T21:46:52.404Z,27.17
2023-01-24T21:49:19.149Z,25.75
2023-01-24T21:51:48.549Z,26.52
2023-01-24T21:54:33.293Z,25.50
2023-01-24T21:57:33.213Z,23.92
2023-01-24T22:00:02.216Z,26.52
2023-01-24T22:02:30.892Z,24.75
2023-01-24T22:04:58.687Z,22.45
2023-01-24T22:07:27.813Z,25.33
2023-01-24T22:09:57.921Z,26.67
2023-01-24T22:12:24.832Z,25.17
2023-01-24T22:14:52.260Z,26.38
2023-01-24T22:17:21.457Z,28.23
2023-01-24T22:19:51.091Z,24.50
2023-01-24T22:22:26.739Z,26.65
2023-01-24T22:25:15.368Z,24.58
2023-01-24T22:27:42.437Z,26.35
2023-01-24T22:30:17.035Z,25.38
2023-01-24T22:32:44.645Z,26.52
2023-01-24T22:35:23.674Z,24.05
2023-01-24T22:37:54.378Z,24.35
2023-01-24T22:40:21.895Z,24.70
2023-01-24T22:42:50.325Z,27.02
2023-01-24T22:45:18.292Z,27.08
2023-01-24T22:47:45.063Z,31.85
2023-01-24T22:50:11.840Z,23.70
2023-01-24T22:52:39.546Z,28.38
2023-01-24T22:55:07.596Z,25.52
2023-01-24T22:57:34.535Z,27.80
2023-01-24T23:00:02.550Z,27.42
2023-01-24T23:02:30.274Z,27.45
2023-01-24T23:04:57.115Z,27.42
2023-01-24T23:07:23.893Z,28.02
2023-01-24T23:09:50.654Z,27.40
2023-01-24T23:12:36.838Z,26.40
2023-01-24T23:15:22.720Z,27.15
2023-01-24T23:17:52.267Z,28.80
2023-01-24T23:20:37.679Z,25.52
2023-01-24T23:23:04.417Z,28.25
2023-01-24T23:25:31.211Z,28.08
2023-01-24T23:27:57.948Z,29.95
2023-01-24T23:30:41.039Z,29.10
2023-01-24T23:33:34.758Z,28.58
2023-01-24T23:36:02.232Z,25.67
2023-01-24T23:38:30.107Z,32.85
2023-01-24T23:40:56.905Z,25.70
2023-01-24T23:43:23.679Z,28.02
2023-01-24T23:45:50.748Z,26.92
2023-01-24T23:48:17.535Z,29.00
2023-01-24T23:50:44.302Z,29.10
2023-01-24T23:53:11.050Z,27.85
2023-01-24T23:55:37.882Z,26.55
2023-01-24T23:58:04.705Z,29.90
